createdAt,value
2018-07-07T00:00:20.537Z,8.00
2018-07-07T00:01:20.537Z,8.00
2018-07-07T00:02:20.534Z,8.00
2018-07-07T00:03:20.548Z,8.00
2018-07-07T00:04:20.536Z,8.00
2018-07-07T00:05:20.549Z,8.00
2018-07-07T00:06:20.542Z,8.00
2018-07-07T00:07:20.548Z,8.00
2018-07-07T00:08:20.564Z,8.00
2018-07-07T00:09:20.541Z,8.00
2018-07-07T00:10:20.544Z,8.00
2018-07-07T00:11:20.545Z,8.00
2018-07-07T00:12:20.561Z,8.00
2018-07-07T00:13:20.551Z,8.00
2018-07-07T00:14:20.558Z,8.00
2018-07-07T00:15:20.550Z,8.00
2018-07-07T00:16:20.552Z,8.00
2018-07-07T00:17:20.569Z,8.00
2018-07-07T00:18:20.550Z,8.00
2018-07-07T00:19:20.553Z,8.00
2018-07-07T00:20:20.614Z,8.00
2018-07-07T00:21:20.554Z,8.00
2018-07-07T00:22:20.556Z,8.00
2018-07-07T00:23:20.555Z,8.00
2018-07-07T00:24:20.562Z,8.00
2018-07-07T00:25:20.558Z,8.00
2018-07-07T00:26:20.559Z,8.00
2018-07-07T00:27:20.562Z,8.00
2018-07-07T00:28:20.562Z,8.00
2018-07-07T00:29:20.562Z,8.00
2018-07-07T00:30:20.561Z,8.00
2018-07-07T00:31:20.563Z,8.00
2018-07-07T00:32:20.563Z,8.00
2018-07-07T00:33:20.564Z,8.00
2018-07-07T00:34:20.565Z,8.00
2018-07-07T00:35:20.571Z,8.00
2018-07-07T00:36:20.566Z,8.00
2018-07-07T00:37:20.569Z,8.00
2018-07-07T00:38:20.567Z,8.00
2018-07-07T00:39:20.568Z,8.00
2018-07-07T00:40:20.568Z,8.00
2018-07-07T00:41:20.572Z,8.00
2018-07-07T00:42:20.571Z,8.00
2018-07-07T00:43:20.578Z,8.00
2018-07-07T00:44:20.573Z,8.00
2018-07-07T00:45:20.572Z,8.00
2018-07-07T00:46:20.584Z,8.00
2018-07-07T00:47:20.574Z,8.00
2018-07-07T00:48:20.578Z,8.00
2018-07-07T00:49:20.588Z,8.00
2018-07-07T00:50:20.585Z,8.00
2018-07-07T00:51:20.591Z,8.00
2018-07-07T00:52:20.577Z,8.00
2018-07-07T00:53:20.579Z,8.00
2018-07-07T00:54:20.589Z,8.00
2018-07-07T00:55:20.580Z,8.00
2018-07-07T00:56:20.580Z,8.00
2018-07-07T00:57:20.583Z,8.00
2018-07-07T00:58:20.590Z,8.00
2018-07-07T00:59:20.581Z,8.00
2018-07-07T01:00:20.583Z,8.00
2018-07-07T01:01:20.583Z,8.00
2018-07-07T01:02:20.584Z,8.00
2018-07-07T01:03:20.590Z,8.00
2018-07-07T01:04:20.584Z,8.00
2018-07-07T01:05:20.586Z,8.00
2018-07-07T01:06:20.599Z,8.00
2018-07-07T01:07:20.588Z,8.00
2018-07-07T01:08:20.588Z,8.00
2018-07-07T01:09:20.637Z,8.00
2018-07-07T01:10:20.595Z,8.00
2018-07-07T01:11:20.588Z,8.00
2018-07-07T01:12:20.588Z,8.00
2018-07-07T01:13:20.588Z,8.00
2018-07-07T01:14:20.590Z,8.00
2018-07-07T01:15:20.594Z,8.00
2018-07-07T01:16:20.589Z,8.00
2018-07-07T01:17:20.590Z,8.00
2018-07-07T01:18:20.590Z,8.00
2018-07-07T01:19:20.591Z,8.00
2018-07-07T01:20:20.593Z,8.00
2018-07-07T01:21:20.594Z,8.00
2018-07-07T01:22:20.763Z,8.00
2018-07-07T01:23:20.602Z,8.00
2018-07-07T01:24:20.609Z,8.00
2018-07-07T01:25:20.596Z,4.00
2018-07-07T01:26:20.597Z,8.00
2018-07-07T01:27:20.596Z,8.00
2018-07-07T01:28:20.597Z,8.00
2018-07-07T01:29:20.762Z,8.00
2018-07-07T01:30:20.598Z,8.00
2018-07-07T01:31:20.599Z,8.00
2018-07-07T01:32:20.597Z,8.00
2018-07-07T01:33:20.597Z,8.00
2018-07-07T01:34:20.598Z,8.00
2018-07-07T01:35:20.598Z,8.00
2018-07-07T01:36:20.598Z,8.00
2018-07-07T01:37:20.600Z,8.00
2018-07-07T01:38:20.600Z,8.00
2018-07-07T01:39:20.597Z,8.00
2018-07-07T01:40:20.602Z,8.00
2018-07-07T01:41:20.599Z,8.00
2018-07-07T01:42:20.600Z,8.00
2018-07-07T01:43:20.599Z,4.00
2018-07-07T01:44:20.600Z,8.00
2018-07-07T01:45:20.600Z,8.00
2018-07-07T01:46:20.602Z,8.00
2018-07-07T01:47:20.600Z,8.00
2018-07-07T01:48:20.599Z,8.00
2018-07-07T01:49:20.602Z,8.00
2018-07-07T01:50:20.602Z,8.00
2018-07-07T01:51:20.603Z,8.00
2018-07-07T01:52:20.604Z,8.00
2018-07-07T01:53:20.602Z,8.00
2018-07-07T01:54:20.604Z,8.00
2018-07-07T01:55:20.612Z,8.00
2018-07-07T01:56:20.622Z,8.00
2018-07-07T01:57:20.604Z,8.00
2018-07-07T01:58:20.604Z,8.00
2018-07-07T01:59:20.601Z,8.00
2018-07-07T02:00:20.620Z,8.00
2018-07-07T02:01:20.605Z,8.00
2018-07-07T02:02:20.605Z,8.00
2018-07-07T02:03:20.603Z,8.00
2018-07-07T02:04:20.605Z,8.00
2018-07-07T02:05:20.603Z,8.00
2018-07-07T02:06:20.604Z,8.00
2018-07-07T02:07:20.605Z,8.00
2018-07-07T02:08:20.605Z,8.00
2018-07-07T02:09:20.612Z,8.00
2018-07-07T02:10:20.650Z,8.00
2018-07-07T02:11:20.604Z,8.00
2018-07-07T02:12:20.604Z,8.00
2018-07-07T02:13:20.602Z,8.00
2018-07-07T02:14:20.606Z,8.00
2018-07-07T02:15:20.606Z,8.00
2018-07-07T02:16:20.603Z,8.00
2018-07-07T02:17:20.604Z,8.00
2018-07-07T02:18:20.603Z,8.00
2018-07-07T02:19:20.602Z,8.00
2018-07-07T02:20:20.602Z,8.00
2018-07-07T02:21:20.602Z,8.00
2018-07-07T02:22:20.602Z,8.00
2018-07-07T02:23:20.602Z,8.00
2018-07-07T02:24:20.607Z,8.00
2018-07-07T02:25:20.602Z,4.00
2018-07-07T02:26:20.603Z,4.00
2018-07-07T02:27:20.601Z,4.00
2018-07-07T02:28:20.601Z,8.00
2018-07-07T02:29:20.600Z,8.00
2018-07-07T02:30:20.607Z,8.00
2018-07-07T02:31:20.600Z,8.00
2018-07-07T02:32:20.617Z,8.00
2018-07-07T02:33:20.601Z,4.00
2018-07-07T02:34:20.603Z,8.00
2018-07-07T02:35:20.600Z,8.00
2018-07-07T02:36:20.601Z,8.00
2018-07-07T02:37:20.599Z,8.00
2018-07-07T02:38:20.600Z,4.00
2018-07-07T02:39:20.602Z,4.00
2018-07-07T02:40:20.598Z,8.00
2018-07-07T02:41:20.597Z,4.00
2018-07-07T02:42:20.597Z,8.00
2018-07-07T02:43:20.601Z,8.00
2018-07-07T02:44:20.598Z,12.00
2018-07-07T02:45:20.595Z,12.00
2018-07-07T02:46:20.665Z,12.00
2018-07-07T02:47:20.594Z,12.00
2018-07-07T02:48:20.594Z,12.00
2018-07-07T02:49:20.598Z,12.00
2018-07-07T02:50:20.594Z,12.00
2018-07-07T02:51:20.598Z,16.00
2018-07-07T02:52:20.593Z,20.00
2018-07-07T02:53:20.593Z,20.00
2018-07-07T02:54:20.596Z,24.00
2018-07-07T02:55:20.593Z,24.00
2018-07-07T02:56:20.622Z,28.00
2018-07-07T02:57:20.591Z,28.00
2018-07-07T02:58:20.592Z,36.00
2018-07-07T02:59:20.588Z,36.00
2018-07-07T03:00:20.588Z,40.00
2018-07-07T03:01:20.590Z,40.00
2018-07-07T03:02:20.597Z,48.00
2018-07-07T03:03:20.659Z,52.00
2018-07-07T03:04:20.584Z,56.00
2018-07-07T03:05:20.585Z,56.00
2018-07-07T03:06:20.587Z,64.00
2018-07-07T03:07:20.589Z,68.00
2018-07-07T03:08:20.585Z,72.00
2018-07-07T03:09:20.583Z,76.00
2018-07-07T03:10:20.583Z,88.00
2018-07-07T03:11:20.593Z,92.00
2018-07-07T03:12:20.593Z,96.00
2018-07-07T03:13:20.580Z,104.00
2018-07-07T03:14:20.579Z,108.00
2018-07-07T03:15:20.579Z,116.00
2018-07-07T03:16:20.578Z,124.00
2018-07-07T03:17:20.579Z,132.00
2018-07-07T03:18:40.410Z,140.00
2018-07-07T03:19:20.581Z,148.00
2018-07-07T03:20:20.578Z,152.00
2018-07-07T03:21:20.576Z,160.00
2018-07-07T03:22:20.574Z,172.00
2018-07-07T03:23:20.588Z,180.00
2018-07-07T03:24:20.579Z,188.00
2018-07-07T03:25:20.573Z,196.00
2018-07-07T03:26:20.571Z,204.00
2018-07-07T03:27:20.570Z,216.00
2018-07-07T03:28:20.570Z,236.00
2018-07-07T03:29:20.570Z,252.00
2018-07-07T03:30:20.568Z,260.00
2018-07-07T03:31:20.568Z,256.00
2018-07-07T03:32:20.567Z,260.00
2018-07-07T03:33:20.566Z,272.00
2018-07-07T03:34:20.568Z,284.00
2018-07-07T03:35:20.563Z,300.00
2018-07-07T03:36:20.562Z,324.00
2018-07-07T03:37:20.564Z,372.00
2018-07-07T03:38:20.560Z,412.00
2018-07-07T03:39:20.563Z,452.00
2018-07-07T03:40:20.567Z,476.00
2018-07-07T03:41:20.558Z,500.00
2018-07-07T03:42:20.591Z,524.00
2018-07-07T03:43:20.555Z,548.00
2018-07-07T03:44:20.555Z,584.00
2018-07-07T03:45:20.557Z,616.00
2018-07-07T03:46:20.554Z,644.00
2018-07-07T03:47:20.553Z,668.00
2018-07-07T03:48:20.552Z,692.00
2018-07-07T03:49:20.564Z,712.00
2018-07-07T03:50:20.552Z,728.00
2018-07-07T03:51:20.549Z,744.00
2018-07-07T03:52:20.548Z,764.00
2018-07-07T03:53:20.547Z,788.00
2018-07-07T03:54:20.550Z,812.00
2018-07-07T03:55:20.547Z,836.00
2018-07-07T03:56:20.549Z,864.00
2018-07-07T03:57:20.546Z,880.00
2018-07-07T03:58:20.553Z,900.00
2018-07-07T03:59:20.544Z,924.00
2018-07-07T04:00:20.544Z,944.00
2018-07-07T04:01:20.545Z,952.00
2018-07-07T04:02:20.543Z,980.00
2018-07-07T04:03:20.541Z,996.00
2018-07-07T04:04:20.538Z,1012.00
2018-07-07T04:05:20.538Z,1036.00
2018-07-07T04:06:20.537Z,1056.00
2018-07-07T04:07:20.661Z,1068.00
2018-07-07T04:08:20.537Z,1092.00
2018-07-07T04:09:20.534Z,1120.00
2018-07-07T04:10:20.535Z,1144.00
2018-07-07T04:11:20.533Z,1168.00
2018-07-07T04:12:20.536Z,1180.00
2018-07-07T04:13:20.534Z,1184.00
2018-07-07T04:14:20.534Z,1188.00
2018-07-07T04:15:20.531Z,1204.00
2018-07-07T04:16:20.532Z,1236.00
2018-07-07T04:17:20.529Z,1276.00
2018-07-07T04:18:20.529Z,1304.00
2018-07-07T04:19:20.527Z,1324.00
2018-07-07T04:20:20.532Z,1344.00
2018-07-07T04:21:20.529Z,1372.00
2018-07-07T04:22:20.527Z,1400.00
2018-07-07T04:23:20.523Z,1432.00
2018-07-07T04:24:20.524Z,1468.00
2018-07-07T04:25:20.525Z,1504.00
2018-07-07T04:26:20.522Z,1552.00
2018-07-07T04:27:20.523Z,1588.00
2018-07-07T04:28:20.521Z,1632.00
2018-07-07T04:29:20.521Z,1668.00
2018-07-07T04:30:20.520Z,1712.00
2018-07-07T04:31:20.544Z,1780.00
2018-07-07T04:32:20.518Z,1876.00
2018-07-07T04:33:20.521Z,1980.00
2018-07-07T04:34:20.518Z,1744.00
2018-07-07T04:35:20.523Z,1288.00
2018-07-07T04:36:20.517Z,1312.00
2018-07-07T04:37:20.517Z,1296.00
2018-07-07T04:38:20.548Z,1412.00
2018-07-07T04:39:20.535Z,1580.00
2018-07-07T04:40:20.516Z,2540.00
2018-07-07T04:41:20.514Z,2648.00
2018-07-07T04:42:20.517Z,2708.00
2018-07-07T04:43:20.516Z,2796.00
2018-07-07T04:44:20.512Z,2908.00
2018-07-07T04:45:20.515Z,2980.00
2018-07-07T04:46:20.512Z,3040.00
2018-07-07T04:47:20.514Z,3008.00
2018-07-07T04:48:20.511Z,2940.00
2018-07-07T04:49:20.516Z,3164.00
2018-07-07T04:50:20.513Z,3448.00
2018-07-07T04:51:20.539Z,3596.00
2018-07-07T04:52:20.559Z,3688.00
2018-07-07T04:53:20.510Z,3788.00
2018-07-07T04:54:20.510Z,3876.00
2018-07-07T04:55:20.513Z,3944.00
2018-07-07T04:56:20.514Z,4024.00
2018-07-07T04:57:20.509Z,4100.00
2018-07-07T04:58:20.515Z,4184.00
2018-07-07T04:59:20.510Z,4264.00
2018-07-07T05:00:20.510Z,4348.00
2018-07-07T05:01:20.512Z,4432.00
2018-07-07T05:02:20.509Z,4552.00
2018-07-07T05:03:20.508Z,4672.00
2018-07-07T05:04:20.509Z,4808.00
2018-07-07T05:05:20.513Z,4920.00
2018-07-07T05:06:20.511Z,5024.00
2018-07-07T05:07:20.510Z,5132.00
2018-07-07T05:08:20.511Z,5152.00
2018-07-07T05:09:20.511Z,4780.00
2018-07-07T05:10:20.515Z,4992.00
2018-07-07T05:11:20.512Z,5260.00
2018-07-07T05:12:20.515Z,5528.00
2018-07-07T05:13:20.514Z,6748.00
2018-07-07T05:14:20.512Z,10420.00
2018-07-07T05:15:20.515Z,14080.00
2018-07-07T05:16:20.517Z,12896.00
2018-07-07T05:17:20.648Z,9092.00
2018-07-07T05:18:20.519Z,8004.00
2018-07-07T05:19:20.518Z,10972.00
2018-07-07T05:20:20.524Z,16448.00
2018-07-07T05:21:20.522Z,17376.00
2018-07-07T05:22:20.525Z,14368.00
2018-07-07T05:23:20.526Z,12652.00
2018-07-07T05:24:20.534Z,9380.00
2018-07-07T05:25:20.534Z,7428.00
2018-07-07T05:26:20.535Z,7628.00
2018-07-07T05:27:20.534Z,8900.00
2018-07-07T05:28:20.538Z,9400.00
2018-07-07T05:29:20.540Z,8708.00
2018-07-07T05:30:20.555Z,9316.00
2018-07-07T05:31:20.544Z,12200.00
2018-07-07T05:32:20.545Z,13632.00
2018-07-07T05:33:20.550Z,10692.00
2018-07-07T05:34:20.553Z,8156.00
2018-07-07T05:35:20.560Z,10312.00
2018-07-07T05:36:20.557Z,18368.00
2018-07-07T05:37:20.583Z,18080.00
2018-07-07T05:38:20.563Z,9964.00
2018-07-07T05:39:20.564Z,8796.00
2018-07-07T05:40:20.571Z,13084.00
2018-07-07T05:41:20.580Z,17312.00
2018-07-07T05:42:20.579Z,14008.00
2018-07-07T05:43:20.581Z,9960.00
2018-07-07T05:44:20.584Z,8088.00
2018-07-07T05:45:20.587Z,7636.00
2018-07-07T05:46:20.594Z,8052.00
2018-07-07T05:47:20.592Z,8036.00
2018-07-07T05:48:20.597Z,8016.00
2018-07-07T05:49:20.599Z,8032.00
2018-07-07T05:50:20.604Z,8044.00
2018-07-07T05:51:20.605Z,8072.00
2018-07-07T05:52:20.609Z,8084.00
2018-07-07T05:53:20.613Z,8132.00
2018-07-07T05:54:20.616Z,8156.00
2018-07-07T05:55:20.620Z,8380.00
2018-07-07T05:56:20.623Z,11244.00
2018-07-07T05:57:20.695Z,16160.00
2018-07-07T05:58:20.633Z,16384.00
2018-07-07T05:59:20.635Z,13260.00
2018-07-07T06:00:20.634Z,11104.00
2018-07-07T06:01:20.639Z,15008.00
2018-07-07T06:02:20.655Z,19968.00
2018-07-07T06:03:20.646Z,21696.00
2018-07-07T06:04:20.651Z,17152.00
2018-07-07T06:05:20.651Z,10104.00
2018-07-07T06:06:20.656Z,8132.00
2018-07-07T06:07:20.659Z,8128.00
2018-07-07T06:08:20.662Z,8068.00
2018-07-07T06:09:20.668Z,8032.00
2018-07-07T06:10:20.671Z,8024.00
2018-07-07T06:11:20.676Z,8068.00
2018-07-07T06:12:20.681Z,8060.00
2018-07-07T06:13:20.684Z,8024.00
2018-07-07T06:14:20.717Z,8012.00
2018-07-07T06:15:20.690Z,9036.00
2018-07-07T06:16:20.695Z,11636.00
2018-07-07T06:17:20.699Z,11484.00
2018-07-07T06:18:20.752Z,9424.00
2018-07-07T06:19:20.704Z,12936.00
2018-07-07T06:20:20.709Z,14756.00
2018-07-07T06:21:20.723Z,11900.00
2018-07-07T06:22:20.717Z,8364.00
2018-07-07T06:23:20.725Z,7704.00
2018-07-07T06:24:20.723Z,7624.00
2018-07-07T06:25:20.727Z,7580.00
2018-07-07T06:26:20.753Z,7544.00
2018-07-07T06:27:20.734Z,7492.00
2018-07-07T06:28:20.739Z,7444.00
2018-07-07T06:29:20.743Z,7384.00
2018-07-07T06:30:20.752Z,7348.00
2018-07-07T06:31:20.749Z,7304.00
2018-07-07T06:32:20.752Z,7268.00
2018-07-07T06:33:20.758Z,7220.00
2018-07-07T06:34:20.763Z,7168.00
2018-07-07T06:35:20.765Z,7120.00
2018-07-07T06:36:20.771Z,7056.00
2018-07-07T06:37:20.812Z,7024.00
2018-07-07T06:38:20.782Z,6988.00
2018-07-07T06:39:20.783Z,6952.00
2018-07-07T06:40:20.781Z,6900.00
2018-07-07T06:41:20.785Z,6852.00
2018-07-07T06:42:20.791Z,6800.00
2018-07-07T06:43:20.790Z,6752.00
2018-07-07T06:44:20.795Z,6512.00
2018-07-07T06:45:20.798Z,6488.00
2018-07-07T06:46:20.802Z,6504.00
2018-07-07T06:47:20.804Z,6356.00
2018-07-07T06:48:20.807Z,6280.00
2018-07-07T06:49:20.843Z,6108.00
2018-07-07T06:50:20.814Z,6056.00
2018-07-07T06:51:20.816Z,5912.00
2018-07-07T06:52:20.822Z,5744.00
2018-07-07T06:53:20.823Z,5604.00
2018-07-07T06:54:20.828Z,5520.00
2018-07-07T06:55:20.828Z,5440.00
2018-07-07T06:56:20.832Z,5272.00
2018-07-07T06:57:20.835Z,5116.00
2018-07-07T06:58:20.841Z,4924.00
2018-07-07T06:59:20.842Z,4764.00
2018-07-07T07:00:20.849Z,4632.00
2018-07-07T07:01:20.851Z,4508.00
2018-07-07T07:02:20.851Z,4344.00
2018-07-07T07:03:20.898Z,4124.00
2018-07-07T07:04:20.861Z,3868.00
2018-07-07T07:05:20.861Z,3568.00
2018-07-07T07:06:20.893Z,3252.00
2018-07-07T07:07:20.865Z,2940.00
2018-07-07T07:08:20.868Z,2696.00
2018-07-07T07:09:20.871Z,2528.00
2018-07-07T07:10:20.910Z,2392.00
2018-07-07T07:11:20.877Z,2260.00
2018-07-07T07:12:20.881Z,2152.00
2018-07-07T07:13:20.881Z,2100.00
2018-07-07T07:14:20.886Z,2092.00
2018-07-07T07:15:20.887Z,2132.00
2018-07-07T07:16:20.891Z,2136.00
2018-07-07T07:17:20.893Z,2312.00
2018-07-07T07:18:20.896Z,2364.00
2018-07-07T07:19:20.897Z,2476.00
2018-07-07T07:20:20.904Z,2596.00
2018-07-07T07:21:20.901Z,2728.00
2018-07-07T07:22:20.907Z,2880.00
2018-07-07T07:23:20.916Z,3044.00
2018-07-07T07:24:20.910Z,3220.00
2018-07-07T07:25:20.916Z,3424.00
2018-07-07T07:26:20.924Z,3656.00
2018-07-07T07:27:20.917Z,3944.00
2018-07-07T07:28:20.959Z,4244.00
2018-07-07T07:29:20.923Z,4504.00
2018-07-07T07:30:20.925Z,4780.00
2018-07-07T07:31:20.928Z,4916.00
2018-07-07T07:32:20.976Z,5140.00
2018-07-07T07:33:20.933Z,5192.00
2018-07-07T07:34:20.937Z,5216.00
2018-07-07T07:35:20.939Z,5104.00
2018-07-07T07:36:20.943Z,4876.00
2018-07-07T07:37:20.947Z,4776.00
2018-07-07T07:38:20.948Z,4692.00
2018-07-07T07:39:20.952Z,4616.00
2018-07-07T07:40:20.964Z,4512.00
2018-07-07T07:41:20.960Z,4440.00
2018-07-07T07:42:20.967Z,4392.00
2018-07-07T07:43:20.965Z,4332.00
2018-07-07T07:44:20.968Z,4304.00
2018-07-07T07:45:20.973Z,4284.00
2018-07-07T07:46:20.984Z,4284.00
2018-07-07T07:47:20.980Z,4320.00
2018-07-07T07:48:20.981Z,4384.00
2018-07-07T07:49:20.984Z,4408.00
2018-07-07T07:50:20.988Z,4428.00
2018-07-07T07:51:20.991Z,4448.00
2018-07-07T07:52:20.997Z,4500.00
2018-07-07T07:53:20.998Z,4528.00
2018-07-07T07:54:21.002Z,4548.00
2018-07-07T07:55:21.007Z,4556.00
2018-07-07T07:56:21.009Z,4600.00
2018-07-07T07:57:21.013Z,4660.00
2018-07-07T07:58:21.017Z,4728.00
2018-07-07T07:59:21.019Z,4764.00
2018-07-07T08:00:21.033Z,4764.00
2018-07-07T08:01:21.027Z,4752.00
2018-07-07T08:02:21.031Z,4800.00
2018-07-07T08:03:21.040Z,4844.00
2018-07-07T08:04:21.039Z,4872.00
2018-07-07T08:05:21.041Z,4864.00
2018-07-07T08:06:21.056Z,4896.00
2018-07-07T08:07:21.048Z,4908.00
2018-07-07T08:08:21.052Z,4944.00
2018-07-07T08:09:21.056Z,4968.00
2018-07-07T08:10:21.062Z,4932.00
2018-07-07T08:11:21.063Z,4892.00
2018-07-07T08:12:21.130Z,4872.00
2018-07-07T08:13:21.075Z,4852.00
2018-07-07T08:14:21.086Z,4776.00
2018-07-07T08:15:21.121Z,4684.00
2018-07-07T08:16:21.080Z,4596.00
2018-07-07T08:17:22.124Z,4504.00
2018-07-07T08:18:21.107Z,4464.00
2018-07-07T08:19:21.093Z,4412.00
2018-07-07T08:20:21.105Z,4352.00
2018-07-07T08:21:21.102Z,4316.00
2018-07-07T08:22:21.108Z,4256.00
2018-07-07T08:23:21.111Z,4228.00
2018-07-07T08:24:21.113Z,4136.00
2018-07-07T08:25:21.119Z,3996.00
2018-07-07T08:26:21.122Z,3872.00
2018-07-07T08:27:21.124Z,3744.00
2018-07-07T08:28:21.141Z,3552.00
2018-07-07T08:29:21.144Z,3372.00
2018-07-07T08:30:21.153Z,3232.00
2018-07-07T08:31:21.141Z,3096.00
2018-07-07T08:32:21.147Z,2916.00
2018-07-07T08:33:21.152Z,2940.00
2018-07-07T08:34:21.188Z,2520.00
2018-07-07T08:35:21.178Z,2124.00
2018-07-07T08:36:21.174Z,2072.00
2018-07-07T08:37:21.167Z,3160.00
2018-07-07T08:38:21.170Z,3520.00
2018-07-07T08:39:21.173Z,3808.00
2018-07-07T08:40:21.183Z,4688.00
2018-07-07T08:41:21.181Z,5304.00
2018-07-07T08:42:21.186Z,5092.00
2018-07-07T08:43:21.189Z,4968.00
2018-07-07T08:44:21.194Z,5572.00
2018-07-07T08:45:21.199Z,5468.00
2018-07-07T08:46:21.218Z,5692.00
2018-07-07T08:47:21.209Z,5812.00
2018-07-07T08:48:21.213Z,5784.00
2018-07-07T08:49:21.277Z,5964.00
2018-07-07T08:50:21.265Z,5996.00
2018-07-07T08:51:21.235Z,5936.00
2018-07-07T08:52:21.237Z,5804.00
2018-07-07T08:53:21.276Z,5080.00
2018-07-07T08:54:21.250Z,4148.00
2018-07-07T08:55:21.256Z,3832.00
2018-07-07T08:56:21.264Z,3144.00
2018-07-07T08:57:21.351Z,4288.00
2018-07-07T08:58:21.279Z,5212.00
2018-07-07T08:59:21.284Z,5236.00
2018-07-07T09:00:21.292Z,5328.00
2018-07-07T09:01:21.300Z,5384.00
2018-07-07T09:02:21.311Z,5492.00
2018-07-07T09:03:21.315Z,5572.00
2018-07-07T09:04:21.322Z,5628.00
2018-07-07T09:05:21.340Z,5664.00
2018-07-07T09:06:21.344Z,5708.00
2018-07-07T09:07:21.349Z,5784.00
2018-07-07T09:08:21.356Z,5820.00
2018-07-07T09:09:21.370Z,5840.00
2018-07-07T09:10:21.382Z,5948.00
2018-07-07T09:11:21.381Z,6056.00
2018-07-07T09:12:21.393Z,6152.00
2018-07-07T09:13:21.400Z,6228.00
2018-07-07T09:14:21.484Z,6384.00
2018-07-07T09:15:21.417Z,6768.00
2018-07-07T09:16:21.431Z,7140.00
2018-07-07T09:17:21.438Z,7080.00
2018-07-07T09:18:21.450Z,8220.00
2018-07-07T09:19:21.462Z,8512.00
2018-07-07T09:20:21.468Z,8520.00
2018-07-07T09:21:21.541Z,9332.00
2018-07-07T09:22:21.488Z,10388.00
2018-07-07T09:23:21.496Z,11532.00
2018-07-07T09:24:21.512Z,12040.00
2018-07-07T09:25:21.524Z,12348.00
2018-07-07T09:26:21.529Z,12896.00
2018-07-07T09:27:21.539Z,13680.00
2018-07-07T09:28:21.548Z,14436.00
2018-07-07T09:29:21.561Z,15272.00
2018-07-07T09:30:21.575Z,17056.00
2018-07-07T09:31:21.581Z,18272.00
2018-07-07T09:32:21.592Z,20064.00
2018-07-07T09:33:21.603Z,21600.00
2018-07-07T09:34:21.617Z,21856.00
2018-07-07T09:35:21.627Z,22368.00
2018-07-07T09:36:21.648Z,23488.00
2018-07-07T09:37:21.649Z,23776.00
2018-07-07T09:38:21.661Z,23232.00
2018-07-07T09:39:21.688Z,22336.00
2018-07-07T09:40:21.691Z,22080.00
2018-07-07T09:41:21.693Z,23264.00
2018-07-07T09:42:21.709Z,24928.00
2018-07-07T09:43:21.716Z,24832.00
2018-07-07T09:44:21.729Z,24320.00
2018-07-07T09:45:21.743Z,15492.00
2018-07-07T09:46:21.755Z,14904.00
2018-07-07T09:47:21.765Z,27584.00
2018-07-07T09:48:21.777Z,15048.00
2018-07-07T09:49:21.797Z,17088.00
2018-07-07T09:50:21.803Z,22912.00
2018-07-07T09:51:21.827Z,21792.00
2018-07-07T09:52:21.827Z,14440.00
2018-07-07T09:53:21.839Z,15164.00
2018-07-07T09:54:21.873Z,18240.00
2018-07-07T09:55:21.879Z,18560.00
2018-07-07T09:56:21.898Z,16576.00
2018-07-07T09:57:21.889Z,18016.00
2018-07-07T09:58:21.907Z,18016.00
2018-07-07T09:59:21.912Z,20800.00
2018-07-07T10:00:21.929Z,21728.00
2018-07-07T10:01:21.936Z,17952.00
2018-07-07T10:02:21.950Z,17760.00
2018-07-07T10:03:21.960Z,29856.00
2018-07-07T10:04:21.974Z,11908.00
2018-07-07T10:05:21.986Z,6840.00
2018-07-07T10:06:21.996Z,8208.00
2018-07-07T10:07:22.019Z,12456.00
2018-07-07T10:08:22.019Z,10604.00
2018-07-07T10:09:22.033Z,11572.00
2018-07-07T10:10:22.043Z,19488.00
2018-07-07T10:11:22.053Z,24032.00
2018-07-07T10:12:22.064Z,21248.00
2018-07-07T10:13:22.098Z,25408.00
2018-07-07T10:14:22.087Z,26496.00
2018-07-07T10:15:22.097Z,21632.00
2018-07-07T10:16:22.111Z,20224.00
2018-07-07T10:17:22.121Z,19104.00
2018-07-07T10:18:22.154Z,27232.00
2018-07-07T10:19:22.159Z,29600.00
2018-07-07T10:20:22.159Z,22880.00
2018-07-07T10:21:22.166Z,24288.00
2018-07-07T10:22:22.176Z,12852.00
2018-07-07T10:23:22.187Z,14328.00
2018-07-07T10:24:22.200Z,11812.00
2018-07-07T10:25:22.211Z,13708.00
2018-07-07T10:26:22.304Z,8684.00
2018-07-07T10:27:22.235Z,7496.00
2018-07-07T10:28:22.244Z,6912.00
2018-07-07T10:29:22.257Z,6640.00
2018-07-07T10:30:22.266Z,7276.00
2018-07-07T10:31:22.277Z,6132.00
2018-07-07T10:32:22.286Z,6128.00
2018-07-07T10:33:22.300Z,6016.00
2018-07-07T10:34:22.313Z,6488.00
2018-07-07T10:35:22.321Z,6172.00
2018-07-07T10:36:22.331Z,5620.00
2018-07-07T10:37:22.378Z,5708.00
2018-07-07T10:38:22.354Z,5452.00
2018-07-07T10:39:22.359Z,5316.00
2018-07-07T10:40:22.369Z,5680.00
2018-07-07T10:41:22.375Z,7096.00
2018-07-07T10:42:22.386Z,10624.00
2018-07-07T10:43:22.393Z,21024.00
2018-07-07T10:44:22.403Z,15844.00
2018-07-07T10:45:22.428Z,14144.00
2018-07-07T10:46:22.423Z,24544.00
2018-07-07T10:47:22.501Z,30336.00
2018-07-07T10:48:22.441Z,23040.00
2018-07-07T10:49:22.451Z,12648.00
2018-07-07T10:50:22.460Z,27072.00
2018-07-07T10:51:22.465Z,29088.00
2018-07-07T10:52:22.483Z,35936.00
2018-07-07T10:53:22.488Z,24608.00
2018-07-07T10:54:22.498Z,24416.00
2018-07-07T10:55:22.515Z,29184.00
2018-07-07T10:56:22.524Z,29440.00
2018-07-07T10:57:22.545Z,24704.00
2018-07-07T10:58:22.533Z,35008.00
2018-07-07T10:59:22.549Z,44800.00
2018-07-07T11:00:22.554Z,43648.00
2018-07-07T11:01:22.564Z,42592.00
2018-07-07T11:02:22.578Z,43936.00
2018-07-07T11:03:22.607Z,46208.00
2018-07-07T11:04:22.732Z,48384.00
2018-07-07T11:05:22.617Z,48000.00
2018-07-07T11:06:22.617Z,48192.00
2018-07-07T11:07:22.630Z,48320.00
2018-07-07T11:08:22.649Z,49632.00
2018-07-07T11:09:22.674Z,51136.00
2018-07-07T11:10:22.666Z,46912.00
2018-07-07T11:11:22.702Z,48576.00
2018-07-07T11:12:22.706Z,39392.00
2018-07-07T11:13:22.779Z,49696.00
2018-07-07T11:14:22.739Z,48704.00
2018-07-07T11:15:22.781Z,47584.00
2018-07-07T11:16:22.813Z,47360.00
2018-07-07T11:17:22.778Z,48640.00
2018-07-07T11:18:22.800Z,49952.00
2018-07-07T11:19:22.799Z,49792.00
2018-07-07T11:20:22.808Z,49568.00
2018-07-07T11:21:22.822Z,48736.00
2018-07-07T11:22:22.859Z,47808.00
2018-07-07T11:23:22.901Z,47072.00
2018-07-07T11:24:22.895Z,47840.00
2018-07-07T11:25:22.903Z,46592.00
2018-07-07T11:26:22.899Z,45856.00
2018-07-07T11:27:22.942Z,45632.00
2018-07-07T11:28:22.929Z,47040.00
2018-07-07T11:29:22.952Z,49216.00
2018-07-07T11:30:22.966Z,52064.00
2018-07-07T11:31:22.984Z,54080.00
2018-07-07T11:32:22.999Z,54496.00
2018-07-07T11:33:23.011Z,54560.00
2018-07-07T11:34:23.029Z,56032.00
2018-07-07T11:35:23.067Z,55776.00
2018-07-07T11:36:23.106Z,54912.00
2018-07-07T11:37:23.077Z,53024.00
2018-07-07T11:38:23.095Z,50432.00
2018-07-07T11:39:23.112Z,48512.00
2018-07-07T11:40:23.129Z,48448.00
2018-07-07T11:41:23.148Z,50176.00
2018-07-07T11:42:23.203Z,51936.00
2018-07-07T11:43:23.178Z,52832.00
2018-07-07T11:44:23.198Z,54048.00
2018-07-07T11:45:23.214Z,55712.00
2018-07-07T11:46:23.230Z,56576.00
2018-07-07T11:47:23.247Z,57856.00
2018-07-07T11:48:23.264Z,58336.00
2018-07-07T11:49:23.304Z,57472.00
2018-07-07T11:50:23.389Z,55776.00
2018-07-07T11:51:23.317Z,53728.00
2018-07-07T11:52:23.341Z,52704.00
2018-07-07T11:53:23.352Z,52288.00
2018-07-07T11:54:23.368Z,51712.00
2018-07-07T11:55:23.386Z,51840.00
2018-07-07T11:56:23.409Z,51520.00
2018-07-07T11:57:23.449Z,52192.00
2018-07-07T11:58:23.439Z,54656.00
2018-07-07T11:59:23.473Z,57216.00
2018-07-07T12:00:23.473Z,57728.00
2018-07-07T12:01:23.500Z,56864.00
2018-07-07T12:02:23.517Z,56640.00
2018-07-07T12:03:23.526Z,56160.00
2018-07-07T12:04:23.565Z,57568.00
2018-07-07T12:05:23.562Z,58400.00
2018-07-07T12:06:23.582Z,59424.00
2018-07-07T12:07:23.597Z,59520.00
2018-07-07T12:08:23.658Z,59168.00
2018-07-07T12:09:23.634Z,59584.00
2018-07-07T12:10:23.652Z,58272.00
2018-07-07T12:11:23.723Z,60416.00
2018-07-07T12:12:23.685Z,59840.00
2018-07-07T12:13:23.703Z,60320.00
2018-07-07T12:14:23.721Z,59648.00
2018-07-07T12:15:23.738Z,58592.00
2018-07-07T12:16:23.757Z,57024.00
2018-07-07T12:17:23.792Z,54304.00
2018-07-07T12:18:23.794Z,51744.00